• Join FlightAware (Why Join?)
  • Login
  • US Flag 
06:57PM EDT


 

Airport Tracker/Info


-or-


 

Live Flight TrackerFlight Track Log ✈ C-FWOA ✈ 07-May-2013 ✈ CYLW - CYPK

Flight Track Log - Related Links

Times and Time Zones

All times are in EDT time to prevent confusion due to time zone crossing. See the C-FWOA flight status page for this flight to view local times or setup timezone preferences in your user account.

Time Position Orientation Groundspeed Altitude Reporting Facility
EDT Latitude Longitude Course Direction KTS MPH feet Rate Location/Type
03:37PM 49.9500 -119.3667 342° North 100 115 2,100  Level Vancouver Center
03:38PM 49.9833 -119.3833 342° North 120 138 3,000 900 Climbing Vancouver Center
03:39PM 50.0167 -119.3833 360° North 120 138 4,000 960 Climbing Vancouver Center
03:40PM 50.0500 -119.4000 342° North 120 138 5,000 900 Climbing Vancouver Center
03:41PM 50.0833 -119.4000 360° North 120 138 5,900 900 Climbing Vancouver Center
03:42PM 50.1000 -119.4167 327° Northwest 120 138 6,800 900 Climbing Vancouver Center
03:43PM 50.1333 -119.4500 327° Northwest 120 138 7,800 900 Climbing Vancouver Center
03:44PM 50.1333 -119.5000 270° West 130 150 8,600 780 Climbing Vancouver Center
03:45PM 50.1000 -119.5833 238° Southwest 140 161 9,400 780 Climbing Vancouver Center
03:46PM 50.0833 -119.6167 232° Southwest 140 161 10,200 720 Climbing Vancouver Center
03:47PM 50.0667 -119.6667 243° Southwest 140 161 10,900 720 Climbing Vancouver Center
03:48PM 50.0500 -119.7167 243° Southwest 140 161 11,700 600 Climbing Vancouver Center
03:49PM 50.0333 -119.8000 253° West 140 161 12,100 180 Climbing Vancouver Center
03:50PM 50.0000 -119.8500 224° Southwest 160 184 12,100  Level Vancouver Center
03:51PM 49.9833 -119.9000 243° Southwest 160 184 12,100  Level Vancouver Center
03:52PM 49.9833 -119.9833 270° West 160 184 12,100  Level Vancouver Center
03:53PM 49.9500 -120.0333 224° Southwest 160 184 12,100  Level Vancouver Center
03:54PM 49.9333 -120.0833 243° Southwest 160 184 12,100  Level Vancouver Center
03:55PM 49.9167 -120.1667 253° West 160 184 12,100  Level Vancouver Center
03:56PM 49.8833 -120.2167 224° Southwest 160 184 12,100  Level Vancouver Center
03:57PM 49.8667 -120.2833 249° West 160 184 12,100  Level Vancouver Center
03:58PM 49.8500 -120.3500 249° West 160 184 12,100  Level Vancouver Center
03:59PM 49.8167 -120.4167 232° Southwest 160 184 12,100  Level Vancouver Center
04:00PM 49.8000 -120.4667 243° Southwest 160 184 12,100  Level Vancouver Center
04:01PM 49.8000 -120.5333 270° West 160 184 12,100  Level Vancouver Center
04:02PM 49.7667 -120.6000 232° Southwest 160 184 12,100  Level Vancouver Center
04:03PM 49.7500 -120.6500 243° Southwest 160 184 12,100  Level Vancouver Center
04:04PM 49.7333 -120.7333 253° West 160 184 12,100  Level Vancouver Center
04:05PM 49.7000 -120.7833 224° Southwest 160 184 12,100  Level Vancouver Center
04:06PM 49.6833 -120.8333 243° Southwest 160 184 12,100  Level Vancouver Center
04:07PM 49.6500 -120.8833 224° Southwest 160 184 12,100  Level Vancouver Center
04:08PM 49.6333 -120.9667 253° West 160 184 12,100  Level Vancouver Center
04:09PM 49.6000 -121.0167 224° Southwest 160 184 12,100  Level Vancouver Center
04:10PM 49.5833 -121.0667 243° Southwest 160 184 12,100  Level Vancouver Center
04:11PM 49.5500 -121.1167 224° Southwest 160 184 12,100 -300 Level Vancouver Center
04:12PM 49.5333 -121.1833 249° West 170 196 11,600 -480 Descending Vancouver Center
04:13PM 49.5000 -121.2333 224° Southwest 170 196 11,200 -420 Descending Vancouver Center
04:14PM 49.4667 -121.2833 224° Southwest 180 207 10,800 -480 Descending Vancouver Center
04:15PM 49.4333 -121.3667 238° Southwest 180 207 10,300 -540 Descending Vancouver Center
04:16PM 49.4167 -121.4167 243° Southwest 180 207 9,800 -480 Descending Vancouver Center
04:17PM 49.3833 -121.4833 232° Southwest 180 207 9,400 -480 Descending Vancouver Center
04:18PM 49.3500 -121.5500 233° Southwest 180 207 8,900 -540 Descending Vancouver Center
04:19PM 49.3167 -121.6000 224° Southwest 180 207 8,400 -480 Descending Vancouver Center
04:20PM 49.2833 -121.6833 239° Southwest 180 207 8,000 -420 Descending Vancouver Center
04:21PM 49.2500 -121.7333 224° Southwest 180 207 7,600 -480 Descending Vancouver Center
04:22PM 49.2333 -121.7833 243° Southwest 180 207 7,100 -480 Descending Vancouver Center
04:23PM 49.2000 -121.8500 233° Southwest 180 207 6,700 -540 Descending Vancouver Center
04:24PM 49.1833 -121.9333 253° West 180 207 6,100 -600 Descending Vancouver Center
04:25PM 49.1667 -122.0167 253° West 180 207 5,600 -540 Descending Vancouver Center
04:26PM 49.1500 -122.0667 243° Southwest 180 207 5,100 -420 Descending Vancouver Center
04:27PM 49.1667 -122.1333 291° West 180 207 4,800 -480 Descending Vancouver Center
04:28PM 49.1667 -122.2167 270° West 180 207 4,200 -600 Descending Vancouver Center
04:29PM 49.1667 -122.3000 270° West 180 207 3,600 -600 Descending Vancouver Center
04:30PM 49.1833 -122.3667 291° West 170 196 3,100 -600 Descending Vancouver Center
04:31PM 49.1833 -122.4500 270° West 170 196 2,500 -540 Descending Vancouver Center
04:32PM 49.1833 -122.5000 270° West 150 173 2,100 -420 Descending Vancouver Center
04:33PM 49.1833 -122.5500 270° West 120 138 1,700 -420 Descending Vancouver Center
04:34PM 49.1833 -122.6000 270° West 110 127 1,300 -360 Descending Vancouver Center
04:35PM 49.2000 -122.6167 327° Northwest 100 115 1,000 -300 Descending Vancouver Center
04:38PM 49.1791 -122.6978 249° West  Level FlightAware Approximate
04:45PM 49.2161 -122.7100 249° West  Level Estimated